createdAt,value
2022-12-04T00:01:28.465Z,2.36
2022-12-04T00:03:58.531Z,2.33
2022-12-04T00:06:27.485Z,2.22
2022-12-04T00:08:55.719Z,2.26
2022-12-04T00:11:27.534Z,2.11
2022-12-04T00:14:04.654Z,2.18
2022-12-04T00:16:35.794Z,2.29
2022-12-04T00:19:04.494Z,2.26
2022-12-04T00:21:32.910Z,2.21
2022-12-04T00:24:01.083Z,2.18
2022-12-04T00:26:31.054Z,2.20
2022-12-04T00:29:00.328Z,2.13
2022-12-04T00:31:30.961Z,2.06
2022-12-04T00:34:00.351Z,2.01
2022-12-04T00:36:29.527Z,2.11
2022-12-04T00:38:59.939Z,2.06
2022-12-04T00:41:31.273Z,2.04
2022-12-04T00:44:02.416Z,2.08
2022-12-04T00:46:30.412Z,2.20
2022-12-04T00:49:01.728Z,2.27
2022-12-04T00:51:30.395Z,2.20
2022-12-04T00:53:58.186Z,2.30
2022-12-04T00:56:28.532Z,2.21
2022-12-04T00:59:01.192Z,2.19
2022-12-04T01:01:30.648Z,2.10
2022-12-04T01:03:58.548Z,2.11
2022-12-04T01:06:30.702Z,2.22
2022-12-04T01:09:01.714Z,2.20
2022-12-04T01:11:30.561Z,2.16
2022-12-04T01:14:00.644Z,2.18
2022-12-04T01:16:33.032Z,2.21
2022-12-04T01:19:01.759Z,2.23
2022-12-04T01:21:29.502Z,2.14
2022-12-04T01:23:58.706Z,2.20
2022-12-04T01:26:27.129Z,2.05
2022-12-04T01:28:54.874Z,2.06
2022-12-04T01:31:24.672Z,2.19
2022-12-04T01:33:53.105Z,2.16
2022-12-04T01:36:25.412Z,2.11
2022-12-04T01:38:54.343Z,2.27
2022-12-04T01:41:26.179Z,2.22
2022-12-04T01:44:14.114Z,2.23
2022-12-04T01:46:46.211Z,2.25
2022-12-04T01:49:19.594Z,2.28
2022-12-04T01:51:52.941Z,2.20
2022-12-04T01:54:28.329Z,2.21
2022-12-04T01:57:04.213Z,2.21
2022-12-04T01:59:39.922Z,2.28
2022-12-04T02:02:15.177Z,2.36
2022-12-04T02:04:44.791Z,2.36
2022-12-04T02:07:12.819Z,2.32
2022-12-04T02:09:43.033Z,2.40
2022-12-04T02:12:22.342Z,2.39
2022-12-04T02:15:04.874Z,2.28
2022-12-04T02:17:48.996Z,2.33
2022-12-04T02:20:32.835Z,2.31
2022-12-04T02:23:32.201Z,2.25
2022-12-04T02:26:14.480Z,2.42
2022-12-04T02:28:51.406Z,2.44
2022-12-04T02:31:26.164Z,2.56
2022-12-04T02:34:02.528Z,2.57
2022-12-04T02:36:36.001Z,2.53
2022-12-04T02:39:12.579Z,2.64
2022-12-04T02:41:46.948Z,2.52
2022-12-04T02:44:26.643Z,2.48
2022-12-04T02:47:00.931Z,2.52
2022-12-04T02:49:37.021Z,2.50
2022-12-04T02:52:11.631Z,2.46
2022-12-04T02:54:45.763Z,2.53
2022-12-04T02:57:21.456Z,2.45
2022-12-04T02:59:53.758Z,2.48
2022-12-04T03:02:31.194Z,2.49
2022-12-04T03:05:07.343Z,2.56
2022-12-04T03:07:44.210Z,2.52
2022-12-04T03:10:17.374Z,2.41
2022-12-04T03:12:53.196Z,2.50
2022-12-04T03:15:27.900Z,2.49
2022-12-04T03:18:03.379Z,2.53
2022-12-04T03:20:36.388Z,2.51
2022-12-04T03:23:11.486Z,2.71
2022-12-04T03:25:49.746Z,2.57
2022-12-04T03:28:31.376Z,2.61
2022-12-04T03:31:09.287Z,2.68
2022-12-04T03:33:42.965Z,2.51
2022-12-04T03:36:18.217Z,2.47
2022-12-04T03:38:55.525Z,2.34
2022-12-04T03:41:30.562Z,2.34
2022-12-04T03:44:07.512Z,2.40
2022-12-04T03:46:48.424Z,2.34
2022-12-04T03:49:23.270Z,2.31
2022-12-04T03:51:59.652Z,2.28
2022-12-04T03:54:35.117Z,2.29
2022-12-04T03:57:13.635Z,2.29
2022-12-04T03:59:53.911Z,2.29
2022-12-04T04:02:32.365Z,2.39
2022-12-04T04:05:06.038Z,2.40
2022-12-04T04:07:42.209Z,2.43
2022-12-04T04:10:17.045Z,2.40
2022-12-04T04:13:12.524Z,2.42
2022-12-04T04:16:07.913Z,2.49
2022-12-04T04:18:57.593Z,2.58
2022-12-04T04:21:51.774Z,2.53
2022-12-04T04:24:30.806Z,2.45
2022-12-04T04:26:59.383Z,2.63
2022-12-04T04:29:27.598Z,2.46
2022-12-04T04:32:08.333Z,2.42
2022-12-04T04:34:51.666Z,2.38
2022-12-04T04:37:33.911Z,2.19
2022-12-04T04:40:14.033Z,2.32
2022-12-04T04:42:51.644Z,2.47
2022-12-04T04:45:30.070Z,2.31
2022-12-04T04:48:04.308Z,2.33
2022-12-04T04:50:35.846Z,2.40
2022-12-04T04:53:09.639Z,2.25
2022-12-04T04:55:38.825Z,2.32
2022-12-04T04:58:09.290Z,2.32
2022-12-04T05:00:38.914Z,2.38
2022-12-04T05:03:07.120Z,2.36
2022-12-04T05:05:36.260Z,2.29
2022-12-04T05:08:04.251Z,2.40
2022-12-04T05:10:32.192Z,2.32
2022-12-04T05:12:59.937Z,2.46
2022-12-04T05:15:27.746Z,2.37
2022-12-04T05:17:55.593Z,2.43
2022-12-04T05:20:23.293Z,2.50
2022-12-04T05:22:52.377Z,2.50
2022-12-04T05:25:20.259Z,2.42
2022-12-04T05:27:47.935Z,2.45
2022-12-04T05:30:16.568Z,2.48
2022-12-04T05:32:44.360Z,2.41
2022-12-04T05:35:12.259Z,2.59
2022-12-04T05:37:40.611Z,2.59
2022-12-04T05:40:11.240Z,2.54
2022-12-04T05:42:38.999Z,2.52
2022-12-04T05:45:07.987Z,2.53
2022-12-04T05:47:39.365Z,2.45
2022-12-04T05:50:10.472Z,2.53
2022-12-04T05:52:38.940Z,2.48
2022-12-04T05:55:08.907Z,2.22
2022-12-04T05:57:36.879Z,2.27
2022-12-04T06:00:06.661Z,2.30
2022-12-04T06:02:39.137Z,2.27
2022-12-04T06:05:07.795Z,2.43
2022-12-04T06:07:35.978Z,2.53
2022-12-04T06:10:05.339Z,2.53
2022-12-04T06:12:34.425Z,2.48
2022-12-04T06:15:02.200Z,2.35
2022-12-04T06:17:30.048Z,2.35
2022-12-04T06:19:58.288Z,2.36
2022-12-04T06:22:26.471Z,2.38
2022-12-04T06:24:54.390Z,2.28
2022-12-04T06:27:29.261Z,2.33
2022-12-04T06:29:59.079Z,2.33
2022-12-04T06:32:27.087Z,2.22
2022-12-04T06:34:55.857Z,2.22
2022-12-04T06:37:25.606Z,2.22
2022-12-04T06:39:53.820Z,2.29
2022-12-04T06:42:21.694Z,2.13
2022-12-04T06:44:49.779Z,2.22
2022-12-04T06:47:18.983Z,2.19
2022-12-04T06:49:51.043Z,2.16
2022-12-04T06:52:19.135Z,2.06
2022-12-04T06:54:46.879Z,2.10
2022-12-04T06:57:14.807Z,2.33
2022-12-04T06:59:42.602Z,2.11
2022-12-04T07:02:10.910Z,2.21
2022-12-04T07:04:40.057Z,2.26
2022-12-04T07:07:09.872Z,2.19
2022-12-04T07:09:37.954Z,2.23
2022-12-04T07:12:06.684Z,2.20
2022-12-04T07:14:34.407Z,2.28
2022-12-04T07:17:02.182Z,2.33
2022-12-04T07:19:30.091Z,2.33
2022-12-04T07:21:59.255Z,2.42
2022-12-04T07:24:26.977Z,2.41
2022-12-04T07:26:55.367Z,2.40
2022-12-04T07:29:23.121Z,2.55
2022-12-04T07:31:50.990Z,2.47
2022-12-04T07:34:18.832Z,2.35
2022-12-04T07:36:46.566Z,2.41
2022-12-04T07:39:15.819Z,2.50
2022-12-04T07:41:43.545Z,2.55
2022-12-04T07:44:11.272Z,2.47
2022-12-04T07:46:39.220Z,2.50
2022-12-04T07:49:06.932Z,2.63
2022-12-04T07:51:35.198Z,2.62
2022-12-04T07:54:04.251Z,2.46
2022-12-04T07:56:34.464Z,2.39
2022-12-04T07:59:02.409Z,2.43
2022-12-04T08:01:31.135Z,2.52
2022-12-04T08:04:00.673Z,2.66
2022-12-04T08:06:32.263Z,2.67
2022-12-04T08:09:03.527Z,2.59
2022-12-04T08:11:35.675Z,2.66
2022-12-04T08:14:05.895Z,2.68
2022-12-04T08:16:34.043Z,2.72
2022-12-04T08:19:03.171Z,2.56
2022-12-04T08:21:32.784Z,2.54
2022-12-04T08:24:01.833Z,2.55
2022-12-04T08:26:31.364Z,2.61
2022-12-04T08:29:01.674Z,2.70
2022-12-04T08:31:34.363Z,2.62
2022-12-04T08:34:05.758Z,2.85
2022-12-04T08:36:34.391Z,2.79
2022-12-04T08:39:02.589Z,2.87
2022-12-04T08:41:30.481Z,2.60
2022-12-04T08:44:00.026Z,2.87
2022-12-04T08:46:29.030Z,2.98
2022-12-04T08:48:57.706Z,3.04
2022-12-04T08:51:29.140Z,2.97
2022-12-04T08:54:00.539Z,3.02
2022-12-04T08:56:30.874Z,3.03
2022-12-04T08:59:01.593Z,2.97
2022-12-04T09:01:30.344Z,3.05
2022-12-04T09:03:58.920Z,3.05
2022-12-04T09:06:26.866Z,3.08
2022-12-04T09:08:56.395Z,3.15
2022-12-04T09:11:27.937Z,3.20
2022-12-04T09:13:55.946Z,3.23
2022-12-04T09:16:26.536Z,3.32
2022-12-04T09:18:55.703Z,3.15
2022-12-04T09:21:25.519Z,3.19
2022-12-04T09:23:53.385Z,2.96
2022-12-04T09:26:25.502Z,3.08
2022-12-04T09:28:55.402Z,3.00
2022-12-04T09:31:26.193Z,2.93
2022-12-04T09:33:54.860Z,2.95
2022-12-04T09:36:22.575Z,3.05
2022-12-04T09:38:53.039Z,3.12
2022-12-04T09:41:41.534Z,3.01
2022-12-04T09:44:20.007Z,2.98
2022-12-04T09:46:53.465Z,2.95
2022-12-04T09:49:28.838Z,3.20
2022-12-04T09:52:02.700Z,3.24
2022-12-04T09:54:39.167Z,3.22
2022-12-04T09:57:20.778Z,3.28
2022-12-04T09:59:50.912Z,2.96
2022-12-04T10:02:35.747Z,3.01
2022-12-04T10:05:05.501Z,3.05
2022-12-04T10:07:52.944Z,3.03
2022-12-04T10:10:35.575Z,3.06
2022-12-04T10:13:21.283Z,3.30
2022-12-04T10:15:58.735Z,3.31
2022-12-04T10:18:48.755Z,3.37
2022-12-04T10:21:34.568Z,3.27
2022-12-04T10:24:18.051Z,3.36
2022-12-04T10:26:48.585Z,3.46
2022-12-04T10:29:22.227Z,3.39
2022-12-04T10:31:55.623Z,3.54
2022-12-04T10:34:28.816Z,3.36
2022-12-04T10:37:04.553Z,3.38
2022-12-04T10:39:42.264Z,3.40
2022-12-04T10:42:25.266Z,3.26
2022-12-04T10:44:53.830Z,3.30
2022-12-04T10:47:23.989Z,3.32
2022-12-04T10:50:02.097Z,3.40
2022-12-04T10:52:29.885Z,3.46
2022-12-04T10:54:59.917Z,3.28
2022-12-04T10:57:40.471Z,3.38
2022-12-04T11:00:26.815Z,3.50
2022-12-04T11:02:57.496Z,3.45
2022-12-04T11:05:32.450Z,3.52
2022-12-04T11:08:05.055Z,3.43
2022-12-04T11:10:38.336Z,3.52
2022-12-04T11:13:15.202Z,3.31
2022-12-04T11:15:46.623Z,3.32
2022-12-04T11:18:19.027Z,3.52
2022-12-04T11:20:54.379Z,3.42
2022-12-04T11:23:23.184Z,3.54
2022-12-04T11:25:59.376Z,3.56
2022-12-04T11:28:41.494Z,3.54
2022-12-04T11:31:18.270Z,3.44
2022-12-04T11:33:52.011Z,3.46
2022-12-04T11:36:26.585Z,3.43
2022-12-04T11:39:07.251Z,3.64
2022-12-04T11:41:35.180Z,3.61
2022-12-04T11:44:06.677Z,3.48
2022-12-04T11:46:34.899Z,3.66
2022-12-04T11:49:03.774Z,3.68
2022-12-04T11:51:50.208Z,3.73
2022-12-04T11:54:29.952Z,3.66
2022-12-04T11:57:16.254Z,3.67
2022-12-04T11:59:57.499Z,3.67
2022-12-04T12:02:59.324Z,3.84
2022-12-04T12:06:02.211Z,3.67
2022-12-04T12:08:56.561Z,3.64
2022-12-04T12:11:34.461Z,3.74
2022-12-04T12:14:14.483Z,3.70
2022-12-04T12:17:03.193Z,3.70
2022-12-04T12:19:54.868Z,3.66
2022-12-04T12:22:43.189Z,3.76
2022-12-04T12:25:21.488Z,3.79
2022-12-04T12:28:15.988Z,3.64
2022-12-04T12:31:12.713Z,3.71
2022-12-04T12:33:46.229Z,3.76
2022-12-04T12:36:16.038Z,3.81
2022-12-04T12:38:50.183Z,3.84
2022-12-04T12:41:27.034Z,3.71
2022-12-04T12:44:01.237Z,3.83
2022-12-04T12:46:36.964Z,3.74
2022-12-04T12:49:17.463Z,3.69
2022-12-04T12:51:52.990Z,3.51
2022-12-04T12:54:36.609Z,3.56
2022-12-04T12:57:13.756Z,3.53
2022-12-04T12:59:50.035Z,3.63
2022-12-04T13:02:28.568Z,3.70
2022-12-04T13:05:04.305Z,3.42
2022-12-04T13:07:45.739Z,3.67
2022-12-04T13:10:19.200Z,3.52
2022-12-04T13:12:57.894Z,3.45
2022-12-04T13:15:36.522Z,3.43
2022-12-04T13:18:08.852Z,3.48
2022-12-04T13:20:52.827Z,3.32
2022-12-04T13:23:40.855Z,3.42
2022-12-04T13:26:24.546Z,3.34
2022-12-04T13:29:09.153Z,3.44
2022-12-04T13:31:53.531Z,3.55
2022-12-04T13:34:48.918Z,3.36
2022-12-04T13:37:35.623Z,3.50
2022-12-04T13:40:33.671Z,3.33
2022-12-04T13:43:20.559Z,3.33
2022-12-04T13:45:52.871Z,3.32
2022-12-04T13:48:36.412Z,3.29
2022-12-04T13:51:22.372Z,3.26
2022-12-04T13:54:22.765Z,3.29
2022-12-04T13:56:53.628Z,3.32
2022-12-04T13:59:37.864Z,3.29
2022-12-04T14:02:28.990Z,3.32
2022-12-04T14:05:02.437Z,3.28
2022-12-04T14:07:35.017Z,3.32
2022-12-04T14:10:23.048Z,3.41
2022-12-04T14:13:03.156Z,3.38
2022-12-04T14:15:34.719Z,3.11
2022-12-04T14:18:20.823Z,3.37
2022-12-04T14:21:00.439Z,3.31
2022-12-04T14:23:36.853Z,3.15
2022-12-04T14:26:05.699Z,3.10
2022-12-04T14:28:42.648Z,3.03
2022-12-04T14:31:27.985Z,2.98
2022-12-04T14:34:02.769Z,3.09
2022-12-04T14:36:40.303Z,3.18
2022-12-04T14:39:20.314Z,3.18
2022-12-04T14:41:48.681Z,3.08
2022-12-04T14:44:28.414Z,3.24
2022-12-04T14:47:13.538Z,3.47
2022-12-04T14:50:04.507Z,3.37
2022-12-04T14:52:40.635Z,3.26
2022-12-04T14:55:25.952Z,3.26
2022-12-04T14:57:59.499Z,3.32
2022-12-04T15:00:28.879Z,3.47
2022-12-04T15:03:00.762Z,3.43
2022-12-04T15:05:32.414Z,3.49
2022-12-04T15:08:05.052Z,3.41
2022-12-04T15:10:54.114Z,3.42
2022-12-04T15:13:27.584Z,3.33
2022-12-04T15:15:56.789Z,3.33
2022-12-04T15:18:24.997Z,3.49
2022-12-04T15:20:59.908Z,3.54
2022-12-04T15:23:34.664Z,3.35
2022-12-04T15:26:07.607Z,3.47
2022-12-04T15:28:43.215Z,3.47
2022-12-04T15:31:18.821Z,3.44
2022-12-04T15:33:51.194Z,3.51
2022-12-04T15:36:44.514Z,3.51
2022-12-04T15:39:17.976Z,3.47
2022-12-04T15:41:46.803Z,3.45
2022-12-04T15:44:24.896Z,3.52
2022-12-04T15:46:56.910Z,3.56
2022-12-04T15:49:27.982Z,3.36
2022-12-04T15:52:13.798Z,3.50
2022-12-04T15:54:46.126Z,3.43
2022-12-04T15:57:24.339Z,3.41
2022-12-04T15:59:54.897Z,3.38
2022-12-04T16:02:29.168Z,3.40
2022-12-04T16:04:57.587Z,3.40
2022-12-04T16:07:29.444Z,3.22
2022-12-04T16:10:04.019Z,3.24
2022-12-04T16:12:33.151Z,3.33
2022-12-04T16:15:00.905Z,3.33
2022-12-04T16:17:32.106Z,3.33
2022-12-04T16:20:03.973Z,3.28
2022-12-04T16:22:33.194Z,3.25
2022-12-04T16:25:00.964Z,3.27
2022-12-04T16:27:28.767Z,3.16
2022-12-04T16:29:56.525Z,3.06
2022-12-04T16:32:32.819Z,3.08
2022-12-04T16:35:01.997Z,3.19
2022-12-04T16:37:31.673Z,3.26
2022-12-04T16:40:06.306Z,3.11
2022-12-04T16:42:34.954Z,3.22
2022-12-04T16:45:05.924Z,3.17
2022-12-04T16:47:33.855Z,3.17
2022-12-04T16:50:01.669Z,3.26
2022-12-04T16:52:29.535Z,3.34
2022-12-04T16:55:01.663Z,3.28
2022-12-04T16:57:34.024Z,3.24
2022-12-04T17:00:02.093Z,3.32
2022-12-04T17:02:30.710Z,3.27
2022-12-04T17:04:58.578Z,3.29
2022-12-04T17:07:26.507Z,3.30
2022-12-04T17:09:54.370Z,3.18
2022-12-04T17:12:22.224Z,3.20
2022-12-04T17:14:51.311Z,3.08
2022-12-04T17:17:19.098Z,3.03
2022-12-04T17:19:46.866Z,3.05
2022-12-04T17:22:14.656Z,3.05
2022-12-04T17:24:49.122Z,3.06
2022-12-04T17:27:21.243Z,3.13
2022-12-04T17:29:50.577Z,3.25
2022-12-04T17:32:18.610Z,3.19
2022-12-04T17:34:46.577Z,3.19
2022-12-04T17:37:14.449Z,3.11
2022-12-04T17:39:42.199Z,3.26
2022-12-04T17:42:10.258Z,3.22
2022-12-04T17:44:38.135Z,3.29
2022-12-04T17:47:07.377Z,3.21
2022-12-04T17:49:35.295Z,3.37
2022-12-04T17:52:03.761Z,3.26
2022-12-04T17:54:31.846Z,3.24
2022-12-04T17:56:59.748Z,3.30
2022-12-04T17:59:28.486Z,3.34
2022-12-04T18:01:56.315Z,3.18
2022-12-04T18:04:25.563Z,3.23
2022-12-04T18:06:53.327Z,3.27
2022-12-04T18:09:21.116Z,3.31
2022-12-04T18:11:49.158Z,3.25
2022-12-04T18:14:21.930Z,3.26
2022-12-04T18:16:53.850Z,3.35
2022-12-04T18:19:25.305Z,3.47
2022-12-04T18:21:54.196Z,3.45
2022-12-04T18:24:24.452Z,3.40
2022-12-04T18:26:52.744Z,3.43
2022-12-04T18:29:23.834Z,3.34
2022-12-04T18:31:52.540Z,3.43
2022-12-04T18:34:21.609Z,3.42
2022-12-04T18:36:50.689Z,3.38
2022-12-04T18:39:21.732Z,3.44
2022-12-04T18:41:49.539Z,3.44
2022-12-04T18:44:17.899Z,3.41
2022-12-04T18:46:45.732Z,3.25
2022-12-04T18:49:13.937Z,3.32
2022-12-04T18:51:48.942Z,3.33
2022-12-04T18:54:23.541Z,3.44
2022-12-04T18:56:51.921Z,3.54
2022-12-04T18:59:22.583Z,3.51
2022-12-04T19:01:51.188Z,3.63
2022-12-04T19:04:22.027Z,3.52
2022-12-04T19:06:54.037Z,3.57
2022-12-04T19:12:15.468Z,3.67
2022-12-04T19:14:43.177Z,3.63
2022-12-04T19:17:11.538Z,3.56
2022-12-04T19:19:39.223Z,3.67
2022-12-04T19:22:07.056Z,3.71
2022-12-04T19:24:36.156Z,3.74
2022-12-04T19:27:10.904Z,3.62
2022-12-04T19:29:39.737Z,3.71
2022-12-04T19:32:08.889Z,3.71
2022-12-04T19:34:37.195Z,3.71
2022-12-04T19:37:05.017Z,3.75
2022-12-04T19:39:33.026Z,3.65
2022-12-04T19:42:02.076Z,3.76
2022-12-04T19:47:18.588Z,3.73
2022-12-04T19:49:46.867Z,3.69
2022-12-04T19:52:14.930Z,3.88
2022-12-04T19:54:42.779Z,3.81
2022-12-04T19:57:12.784Z,3.81
2022-12-04T19:59:45.938Z,3.73
2022-12-04T20:02:15.368Z,3.76
2022-12-04T20:04:43.513Z,3.77
2022-12-04T20:07:11.417Z,3.84
2022-12-04T20:09:39.186Z,3.74
2022-12-04T20:12:07.578Z,3.71
2022-12-04T20:14:36.747Z,3.76
2022-12-04T20:17:05.121Z,3.76
2022-12-04T20:19:33.017Z,3.75
2022-12-04T20:22:00.872Z,3.71
2022-12-04T20:24:28.634Z,3.90
2022-12-04T20:26:56.494Z,4.06
2022-12-04T20:29:24.299Z,4.07
2022-12-04T20:31:53.402Z,4.07
2022-12-04T20:34:21.625Z,4.13
2022-12-04T20:36:49.660Z,4.01
2022-12-04T20:39:19.689Z,4.03
2022-12-04T20:41:47.818Z,3.90
2022-12-04T20:44:19.316Z,3.91
2022-12-04T20:46:48.292Z,4.04
2022-12-04T20:49:22.501Z,4.04
2022-12-04T20:51:52.103Z,4.03
2022-12-04T20:54:22.618Z,4.14
2022-12-04T20:56:53.252Z,4.03
2022-12-04T20:59:23.972Z,4.08
2022-12-04T21:01:52.788Z,4.08
2022-12-04T21:04:22.886Z,4.03
2022-12-04T21:06:50.931Z,4.08
2022-12-04T21:09:21.877Z,4.00
2022-12-04T21:11:52.466Z,4.00
2022-12-04T21:14:41.186Z,4.00
2022-12-04T21:17:18.177Z,3.94
2022-12-04T21:19:49.635Z,3.96
2022-12-04T21:22:19.526Z,4.09
2022-12-04T21:24:47.407Z,4.08
2022-12-04T21:27:20.728Z,4.14
2022-12-04T21:29:49.993Z,4.13
2022-12-04T21:32:19.502Z,4.10
2022-12-04T21:34:49.136Z,4.18
2022-12-04T21:37:16.865Z,4.14
2022-12-04T21:39:44.776Z,4.33
2022-12-04T21:42:31.216Z,4.13
2022-12-04T21:45:01.237Z,4.06
2022-12-04T21:47:30.363Z,4.13
2022-12-04T21:49:59.958Z,4.11
2022-12-04T21:52:28.031Z,4.14
2022-12-04T21:54:56.364Z,4.25
2022-12-04T21:57:24.426Z,4.17
2022-12-04T21:59:52.609Z,4.15
2022-12-04T22:02:21.076Z,4.23
2022-12-04T22:04:49.178Z,4.26
2022-12-04T22:07:18.218Z,4.28
2022-12-04T22:09:45.968Z,4.27
2022-12-04T22:12:41.090Z,4.12
2022-12-04T22:15:01.752Z,4.21
2022-12-04T22:17:29.855Z,4.23
2022-12-04T22:19:57.806Z,4.21
2022-12-04T22:22:27.034Z,4.18
2022-12-04T22:24:54.911Z,4.23
2022-12-04T22:27:22.692Z,4.23
2022-12-04T22:29:51.228Z,4.16
2022-12-04T22:32:20.198Z,4.33
2022-12-04T22:34:49.036Z,4.31
2022-12-04T22:37:17.219Z,4.27
2022-12-04T22:39:46.357Z,4.30
2022-12-04T22:42:14.068Z,4.22
2022-12-04T22:44:41.876Z,4.32
2022-12-04T22:47:09.745Z,4.38
2022-12-04T22:49:37.648Z,4.35
2022-12-04T22:52:05.435Z,4.40
2022-12-04T22:54:33.513Z,4.17
2022-12-04T22:57:02.576Z,4.12
2022-12-04T22:59:30.604Z,4.30
2022-12-04T23:02:00.130Z,4.18
2022-12-04T23:04:29.289Z,4.34
2022-12-04T23:06:57.074Z,4.31
2022-12-04T23:09:26.079Z,4.35
2022-12-04T23:11:55.745Z,4.32
2022-12-04T23:14:26.919Z,4.37
2022-12-04T23:16:55.366Z,4.43
2022-12-04T23:19:23.737Z,4.34
2022-12-04T23:21:56.903Z,4.43
2022-12-04T23:24:25.410Z,4.36
2022-12-04T23:26:53.228Z,4.49
2022-12-04T23:29:51.372Z,4.47
2022-12-04T23:32:10.071Z,4.51
2022-12-04T23:34:38.846Z,4.54
2022-12-04T23:37:06.613Z,4.44
2022-12-04T23:39:34.402Z,4.50
2022-12-04T23:42:02.098Z,4.52
2022-12-04T23:44:30.032Z,4.64
2022-12-04T23:46:57.811Z,4.65
2022-12-04T23:49:27.413Z,4.63
2022-12-04T23:51:55.321Z,4.61
2022-12-04T23:54:23.115Z,4.55
2022-12-04T23:56:50.792Z,4.60
2022-12-04T23:59:18.516Z,4.54
